createdAt,value
2023-12-17T00:00:13.589Z,7.50
2023-12-17T00:02:40.830Z,7.20
2023-12-17T00:05:08.787Z,6.60
2023-12-17T00:07:35.700Z,7.00
2023-12-17T00:10:02.591Z,7.33
2023-12-17T00:12:29.515Z,7.27
2023-12-17T00:14:59.043Z,8.30
2023-12-17T00:17:25.988Z,7.87
2023-12-17T00:19:52.951Z,8.20
2023-12-17T00:22:20.351Z,8.53
2023-12-17T00:24:47.226Z,9.00
2023-12-17T00:27:14.160Z,8.97
2023-12-17T00:29:41.190Z,8.53
2023-12-17T00:32:10.680Z,8.47
2023-12-17T00:34:37.668Z,8.30
2023-12-17T00:37:04.890Z,8.03
2023-12-17T00:39:31.745Z,8.73
2023-12-17T00:41:58.665Z,9.03
2023-12-17T00:44:25.578Z,8.90
2023-12-17T00:46:52.469Z,8.27
2023-12-17T00:49:22.150Z,8.03
2023-12-17T00:51:49.115Z,7.23
2023-12-17T00:54:16.141Z,7.60
2023-12-17T00:56:43.045Z,8.10
2023-12-17T00:59:09.909Z,7.30
2023-12-17T01:01:36.855Z,6.80
2023-12-17T01:04:04.111Z,7.23
2023-12-17T01:06:33.628Z,6.80
2023-12-17T01:09:00.532Z,6.53
2023-12-17T01:11:27.430Z,7.23
2023-12-17T01:13:54.362Z,6.90
2023-12-17T01:16:21.275Z,6.40
2023-12-17T01:18:48.912Z,6.43
2023-12-17T01:21:16.011Z,6.07
2023-12-17T01:23:45.543Z,6.17
2023-12-17T01:26:18.654Z,6.03
2023-12-17T01:28:45.571Z,6.43
2023-12-17T01:31:12.490Z,7.57
2023-12-17T01:33:39.607Z,6.70
2023-12-17T01:36:07.634Z,5.83
2023-12-17T01:38:34.829Z,6.03
2023-12-17T01:41:04.663Z,6.13
2023-12-17T01:43:31.988Z,6.73
2023-12-17T01:45:58.884Z,6.43
2023-12-17T01:48:27.179Z,7.07
2023-12-17T01:50:55.084Z,6.70
2023-12-17T01:53:23.005Z,5.90
2023-12-17T01:55:51.001Z,6.37
2023-12-17T01:58:21.560Z,5.80
2023-12-17T02:00:49.082Z,6.43
2023-12-17T02:03:16.228Z,6.07
2023-12-17T02:05:45.339Z,5.70
2023-12-17T02:08:12.406Z,5.93
2023-12-17T02:10:39.494Z,5.27
2023-12-17T02:13:06.373Z,4.93
2023-12-17T02:15:35.884Z,4.87
2023-12-17T02:18:02.834Z,5.40
2023-12-17T02:20:29.775Z,5.13
2023-12-17T02:22:58.815Z,5.50
2023-12-17T02:25:28.654Z,5.90
2023-12-17T02:27:57.013Z,5.90
2023-12-17T02:30:24.076Z,5.07
2023-12-17T02:32:51.465Z,6.00
2023-12-17T02:35:18.822Z,5.67
2023-12-17T02:37:45.726Z,5.13
2023-12-17T02:40:12.900Z,5.60
2023-12-17T02:42:42.354Z,5.40
2023-12-17T02:45:10.674Z,5.37
2023-12-17T02:47:38.166Z,5.13
2023-12-17T02:50:06.198Z,5.47
2023-12-17T02:52:33.096Z,5.03
2023-12-17T02:54:59.972Z,4.90
2023-12-17T02:57:26.964Z,4.87
2023-12-17T02:59:56.806Z,5.03
2023-12-17T03:02:23.719Z,4.97
2023-12-17T03:04:50.723Z,5.40
2023-12-17T03:07:18.736Z,5.00
2023-12-17T03:09:45.635Z,4.60
2023-12-17T03:12:12.553Z,4.50
2023-12-17T03:14:39.423Z,4.40
2023-12-17T03:17:08.919Z,4.07
2023-12-17T03:19:35.807Z,4.27
2023-12-17T03:22:02.827Z,4.63
2023-12-17T03:24:29.680Z,4.83
2023-12-17T03:26:56.604Z,4.50
2023-12-17T03:29:23.524Z,4.23
2023-12-17T03:31:50.500Z,3.97
2023-12-17T03:34:20.137Z,4.10
2023-12-17T03:36:47.087Z,4.70
2023-12-17T03:39:14.025Z,4.10
2023-12-17T03:41:40.933Z,3.70
2023-12-17T03:44:07.796Z,3.90
2023-12-17T03:46:34.710Z,4.53
2023-12-17T03:49:01.675Z,4.23
2023-12-17T03:51:33.992Z,3.93
2023-12-17T03:54:00.910Z,4.20
2023-12-17T03:56:28.170Z,4.00
2023-12-17T03:58:55.077Z,3.97
2023-12-17T04:01:22.003Z,3.77
2023-12-17T04:03:48.989Z,3.90
2023-12-17T04:06:15.963Z,4.20
2023-12-17T04:08:45.467Z,4.70
2023-12-17T04:11:12.377Z,4.70
2023-12-17T04:13:39.294Z,4.60
2023-12-17T04:16:06.783Z,4.30
2023-12-17T04:18:33.778Z,4.57
2023-12-17T04:21:00.811Z,4.67
2023-12-17T04:23:27.728Z,3.93
2023-12-17T04:25:57.254Z,4.00
2023-12-17T04:28:24.169Z,4.40
2023-12-17T04:30:51.105Z,4.20
2023-12-17T04:33:18.169Z,4.13
2023-12-17T04:35:45.188Z,4.77
2023-12-17T04:38:12.080Z,4.50
2023-12-17T04:40:38.971Z,4.27
2023-12-17T04:43:08.469Z,4.43
2023-12-17T04:45:35.360Z,3.87
2023-12-17T04:48:02.327Z,4.50
2023-12-17T04:50:29.335Z,4.10
2023-12-17T04:52:56.184Z,3.17
2023-12-17T04:55:23.044Z,3.50
2023-12-17T04:57:49.911Z,3.60
2023-12-17T05:00:19.569Z,4.33
2023-12-17T05:02:46.530Z,3.83
2023-12-17T05:05:13.602Z,4.10
2023-12-17T05:07:40.761Z,3.87
2023-12-17T05:10:09.546Z,3.70
2023-12-17T05:12:36.412Z,3.67
2023-12-17T05:15:03.714Z,4.00
2023-12-17T05:17:33.294Z,3.90
2023-12-17T05:20:00.260Z,4.67
2023-12-17T05:22:27.242Z,4.70
2023-12-17T05:24:54.360Z,3.90
2023-12-17T05:27:21.383Z,3.90
2023-12-17T05:29:48.378Z,3.57
2023-12-17T05:32:15.247Z,3.97
2023-12-17T05:34:44.781Z,3.60
2023-12-17T05:37:11.711Z,3.40
2023-12-17T05:39:38.665Z,3.33
2023-12-17T05:42:05.948Z,4.10
2023-12-17T05:44:32.888Z,3.73
2023-12-17T05:46:59.785Z,3.80
2023-12-17T05:49:26.952Z,3.70
2023-12-17T05:51:56.541Z,3.47
2023-12-17T05:54:23.479Z,3.50
2023-12-17T05:56:50.420Z,3.93
2023-12-17T05:59:17.401Z,3.80
2023-12-17T06:01:44.302Z,3.67
2023-12-17T06:04:11.220Z,3.90
2023-12-17T06:06:38.197Z,3.77
2023-12-17T06:09:07.790Z,3.80
2023-12-17T06:11:34.731Z,3.60
2023-12-17T06:14:01.691Z,3.53
2023-12-17T06:16:28.568Z,3.93
2023-12-17T06:18:55.653Z,3.83
2023-12-17T06:21:23.344Z,3.43
2023-12-17T06:23:50.434Z,3.70
2023-12-17T06:26:19.965Z,4.10
2023-12-17T06:28:47.208Z,3.40
2023-12-17T06:31:14.417Z,3.40
2023-12-17T06:33:41.498Z,3.90
2023-12-17T06:36:09.463Z,3.70
2023-12-17T06:38:36.601Z,3.80
2023-12-17T06:41:03.937Z,4.20
2023-12-17T06:43:33.449Z,4.30
2023-12-17T06:46:00.523Z,4.30
2023-12-17T06:48:27.462Z,5.33
2023-12-17T06:50:54.413Z,5.80
2023-12-17T06:53:21.354Z,5.87
2023-12-17T06:55:48.291Z,5.37
2023-12-17T06:58:15.184Z,4.97
2023-12-17T07:00:44.768Z,4.50
2023-12-17T07:03:11.783Z,4.37
2023-12-17T07:05:38.767Z,4.10
2023-12-17T07:08:05.917Z,4.53
2023-12-17T07:10:32.796Z,4.57
2023-12-17T07:12:59.674Z,5.17
2023-12-17T07:15:26.747Z,5.10
2023-12-17T07:17:56.406Z,5.60
2023-12-17T07:20:23.363Z,4.43
2023-12-17T07:22:50.278Z,5.10
2023-12-17T07:25:17.865Z,6.03
2023-12-17T07:27:44.853Z,6.40
2023-12-17T07:30:13.093Z,5.60
2023-12-17T07:32:40.085Z,6.63
2023-12-17T07:35:09.945Z,5.73
2023-12-17T07:37:36.988Z,4.73
2023-12-17T07:40:04.675Z,4.63
2023-12-17T07:42:31.644Z,4.30
2023-12-17T07:44:58.616Z,4.70
2023-12-17T07:47:25.599Z,7.67
2023-12-17T07:49:52.560Z,7.27
2023-12-17T07:52:22.060Z,7.97
2023-12-17T07:54:48.950Z,5.60
2023-12-17T07:57:15.880Z,6.00
2023-12-17T07:59:42.791Z,5.50
2023-12-17T08:02:09.669Z,6.73
2023-12-17T08:04:36.749Z,6.60
2023-12-17T08:07:04.132Z,6.43
2023-12-17T08:09:33.713Z,5.73
2023-12-17T08:12:00.633Z,5.00
2023-12-17T08:14:27.572Z,5.80
2023-12-17T08:16:54.451Z,5.50
2023-12-17T08:19:21.416Z,5.67
2023-12-17T08:21:48.420Z,5.83
2023-12-17T08:24:15.430Z,6.73
2023-12-17T08:26:44.973Z,8.67
2023-12-17T08:29:11.842Z,9.67
2023-12-17T08:31:43.376Z,11.03
2023-12-17T08:34:10.321Z,10.73
2023-12-17T08:36:37.256Z,9.70
2023-12-17T08:39:04.542Z,9.40
2023-12-17T08:41:31.484Z,8.77
2023-12-17T08:44:01.122Z,8.70
2023-12-17T08:46:27.996Z,8.97
2023-12-17T08:48:54.933Z,8.40
2023-12-17T08:51:21.958Z,7.83
2023-12-17T08:53:48.954Z,7.67
2023-12-17T08:56:15.906Z,8.10
2023-12-17T08:58:43.089Z,7.10
2023-12-17T09:01:12.602Z,7.40
2023-12-17T09:03:39.635Z,7.23
2023-12-17T09:06:07.864Z,7.00
2023-12-17T09:08:34.746Z,6.40
2023-12-17T09:11:01.586Z,6.97
2023-12-17T09:13:28.786Z,6.93
2023-12-17T09:15:55.687Z,7.20
2023-12-17T09:18:25.309Z,6.50
2023-12-17T09:20:52.253Z,6.90
2023-12-17T09:23:19.189Z,7.67
2023-12-17T09:25:46.086Z,6.63
2023-12-17T09:28:13.081Z,7.07
2023-12-17T09:30:40.057Z,7.00
2023-12-17T09:33:07.062Z,7.03
2023-12-17T09:35:36.620Z,7.60
2023-12-17T09:38:03.550Z,7.10
2023-12-17T09:40:30.497Z,7.47
2023-12-17T09:42:58.074Z,7.97
2023-12-17T09:45:25.590Z,9.03
2023-12-17T09:47:52.673Z,9.00
2023-12-17T09:50:19.703Z,8.03
2023-12-17T09:52:49.262Z,8.97
2023-12-17T09:55:16.146Z,8.30
2023-12-17T09:57:43.898Z,20.53
2023-12-17T10:00:12.140Z,18.67
2023-12-17T10:02:40.210Z,11.53
2023-12-17T10:05:08.653Z,9.13
2023-12-17T10:07:36.217Z,7.67
2023-12-17T10:10:06.861Z,7.80
2023-12-17T10:12:33.932Z,7.57
2023-12-17T10:15:00.937Z,6.83
2023-12-17T10:17:27.972Z,6.67
2023-12-17T10:19:55.008Z,8.17
2023-12-17T10:22:22.101Z,6.77
2023-12-17T10:24:50.261Z,7.90
2023-12-17T10:27:21.117Z,7.20
2023-12-17T10:29:50.293Z,6.97
2023-12-17T10:32:21.192Z,7.30
2023-12-17T10:34:49.808Z,8.13
2023-12-17T10:37:19.377Z,6.80
2023-12-17T10:39:48.178Z,7.30
2023-12-17T10:42:15.426Z,7.43
2023-12-17T10:44:45.347Z,7.27
2023-12-17T10:47:12.919Z,6.10
2023-12-17T10:49:40.443Z,6.23
2023-12-17T10:52:08.023Z,7.00
2023-12-17T10:54:35.071Z,6.40
2023-12-17T10:57:03.596Z,6.60
2023-12-17T10:59:38.210Z,5.80
2023-12-17T11:02:12.623Z,6.00
2023-12-17T11:05:19.504Z,6.30
2023-12-17T11:07:46.502Z,7.00
2023-12-17T11:10:14.064Z,7.93
2023-12-17T11:12:41.312Z,6.60
2023-12-17T11:17:47.432Z,10.40
2023-12-17T11:20:14.624Z,9.60
2023-12-17T11:22:41.529Z,7.67
2023-12-17T11:25:10.083Z,7.20
2023-12-17T11:27:37.179Z,6.67
2023-12-17T11:30:26.603Z,8.10
2023-12-17T11:32:58.119Z,7.57
2023-12-17T11:35:26.183Z,8.33
2023-12-17T11:37:53.303Z,7.47
2023-12-17T11:40:21.137Z,32.80
2023-12-17T11:42:57.457Z,40.40
2023-12-17T11:45:37.574Z,23.03
2023-12-17T11:48:09.466Z,11.53
2023-12-17T11:50:41.325Z,13.47
2023-12-17T11:53:08.661Z,9.23
2023-12-17T11:55:45.277Z,9.47
2023-12-17T11:58:12.607Z,9.13
2023-12-17T12:00:40.427Z,6.33
2023-12-17T12:08:27.656Z,7.47
2023-12-17T12:10:54.625Z,6.63
2023-12-17T12:13:22.138Z,6.20
2023-12-17T12:15:49.394Z,6.63
2023-12-17T12:18:22.359Z,6.20
2023-12-17T12:20:50.088Z,6.27
2023-12-17T12:23:17.416Z,5.90
2023-12-17T12:25:47.011Z,5.77
2023-12-17T12:28:19.017Z,6.00
2023-12-17T12:30:47.902Z,6.50
2023-12-17T12:33:16.996Z,4.97
2023-12-17T12:35:45.048Z,5.60
2023-12-17T12:38:19.435Z,4.83
2023-12-17T12:40:49.282Z,4.93
2023-12-17T12:43:16.367Z,4.63
2023-12-17T12:45:43.343Z,8.83
2023-12-17T12:48:17.267Z,5.87
2023-12-17T12:50:44.312Z,5.27
2023-12-17T12:53:16.195Z,5.03
2023-12-17T12:55:50.096Z,5.10
2023-12-17T12:58:18.158Z,4.77
2023-12-17T13:00:46.630Z,5.23
2023-12-17T13:03:14.127Z,4.00
2023-12-17T13:05:42.075Z,4.57
2023-12-17T13:08:09.106Z,4.50
2023-12-17T13:10:36.284Z,4.60
2023-12-17T13:13:05.824Z,4.27
2023-12-17T13:15:35.268Z,5.53
2023-12-17T13:18:02.700Z,4.73
2023-12-17T13:20:29.928Z,5.13
2023-12-17T13:22:57.179Z,5.30
2023-12-17T13:25:24.110Z,5.50
2023-12-17T13:27:50.976Z,5.07
2023-12-17T13:30:20.684Z,5.70
2023-12-17T13:32:48.075Z,6.30
2023-12-17T13:35:15.129Z,5.60
2023-12-17T13:37:43.792Z,5.50
2023-12-17T13:40:13.391Z,5.97
2023-12-17T13:42:40.747Z,5.57
2023-12-17T13:45:08.867Z,5.47
2023-12-17T13:47:38.668Z,5.90
2023-12-17T13:50:06.299Z,5.73
2023-12-17T13:52:33.383Z,5.50
2023-12-17T13:55:00.475Z,5.47
2023-12-17T13:57:27.449Z,5.07
2023-12-17T13:59:54.528Z,5.43
2023-12-17T14:02:21.627Z,4.83
2023-12-17T14:04:51.152Z,4.80
2023-12-17T14:07:18.542Z,4.53
2023-12-17T14:09:45.443Z,4.70
2023-12-17T14:12:12.401Z,9.47
2023-12-17T14:14:39.376Z,17.80
2023-12-17T14:17:06.592Z,11.43
2023-12-17T14:19:33.497Z,8.17
2023-12-17T14:22:03.635Z,7.07
2023-12-17T14:24:30.586Z,6.10
2023-12-17T14:26:57.850Z,6.17
2023-12-17T14:29:27.228Z,6.20
2023-12-17T14:31:54.143Z,7.70
2023-12-17T14:34:21.147Z,6.13
2023-12-17T14:36:48.181Z,5.90
2023-12-17T14:39:18.463Z,6.30
2023-12-17T14:41:45.426Z,6.03
2023-12-17T14:44:12.424Z,4.83
2023-12-17T14:46:39.291Z,4.30
2023-12-17T14:49:06.352Z,4.77
2023-12-17T14:51:33.445Z,4.00
2023-12-17T14:54:00.411Z,4.57
2023-12-17T14:56:29.989Z,4.17
2023-12-17T14:58:57.687Z,4.53
2023-12-17T15:01:31.718Z,4.73
2023-12-17T15:04:02.757Z,4.20
2023-12-17T15:06:29.924Z,4.50
2023-12-17T15:08:57.124Z,4.20
2023-12-17T15:11:24.152Z,4.40
2023-12-17T15:13:53.624Z,4.80
2023-12-17T15:16:20.501Z,4.83
2023-12-17T15:18:47.483Z,3.83
2023-12-17T15:21:15.517Z,4.30
2023-12-17T15:23:42.495Z,5.40
2023-12-17T15:26:09.385Z,6.23
2023-12-17T15:28:37.102Z,6.53
2023-12-17T15:31:12.369Z,5.80
2023-12-17T15:33:39.452Z,5.07
2023-12-17T15:36:07.212Z,6.37
2023-12-17T15:38:34.235Z,10.00
2023-12-17T15:41:01.126Z,11.07
2023-12-17T15:43:27.971Z,13.63
2023-12-17T15:45:54.838Z,14.60
2023-12-17T15:48:24.453Z,14.93
2023-12-17T15:50:51.475Z,13.70
2023-12-17T15:53:18.351Z,12.70
2023-12-17T15:55:45.602Z,12.53
2023-12-17T15:58:12.517Z,12.00
2023-12-17T16:00:39.489Z,11.43
2023-12-17T16:03:06.497Z,11.30
2023-12-17T16:05:36.016Z,11.30
2023-12-17T16:08:02.924Z,10.37
2023-12-17T16:10:29.781Z,10.53
2023-12-17T16:12:56.660Z,8.43
2023-12-17T16:15:23.679Z,7.40
2023-12-17T16:17:50.635Z,6.80
2023-12-17T16:20:17.834Z,6.80
2023-12-17T16:22:47.657Z,6.43
2023-12-17T16:25:14.552Z,6.63
2023-12-17T16:27:41.443Z,6.33
2023-12-17T16:30:09.183Z,6.33
2023-12-17T16:32:36.217Z,7.03
2023-12-17T16:35:03.383Z,6.40
2023-12-17T16:37:30.354Z,6.07
2023-12-17T16:39:59.831Z,4.93
2023-12-17T16:42:26.785Z,4.00
2023-12-17T16:44:53.692Z,4.60
2023-12-17T16:47:20.621Z,4.33
2023-12-17T16:49:47.705Z,5.13
2023-12-17T16:52:14.821Z,5.07
2023-12-17T16:54:41.730Z,5.70
2023-12-17T16:57:11.274Z,5.47
2023-12-17T16:59:38.207Z,6.03
2023-12-17T17:02:05.337Z,5.90
2023-12-17T17:04:32.345Z,6.50
2023-12-17T17:06:59.305Z,6.80
2023-12-17T17:09:26.240Z,7.67
2023-12-17T17:11:53.217Z,7.83
2023-12-17T17:14:22.670Z,8.27
2023-12-17T17:16:49.733Z,7.70
2023-12-17T17:19:16.762Z,7.77
2023-12-17T17:21:43.909Z,10.23
2023-12-17T17:24:10.879Z,11.40
2023-12-17T17:26:38.432Z,10.27
2023-12-17T17:29:05.367Z,11.00
2023-12-17T17:31:34.875Z,10.23
2023-12-17T17:34:01.956Z,11.53
2023-12-17T17:36:29.156Z,10.33
2023-12-17T17:38:56.219Z,10.10
2023-12-17T17:41:23.328Z,10.30
2023-12-17T17:43:50.345Z,10.47
2023-12-17T17:46:17.274Z,9.80
2023-12-17T17:48:46.885Z,10.23
2023-12-17T17:51:14.032Z,11.23
2023-12-17T17:53:40.943Z,10.40
2023-12-17T17:56:08.148Z,10.40
2023-12-17T17:58:35.140Z,10.07
2023-12-17T18:01:02.104Z,10.70
2023-12-17T18:03:29.263Z,10.50
2023-12-17T18:05:58.892Z,10.70
2023-12-17T18:08:25.830Z,10.10
2023-12-17T18:10:52.777Z,10.67
2023-12-17T18:13:19.686Z,10.37
2023-12-17T18:15:48.147Z,11.00
2023-12-17T18:18:15.706Z,10.83
2023-12-17T18:20:42.758Z,10.63
2023-12-17T18:23:12.233Z,10.83
2023-12-17T18:25:39.132Z,11.50
2023-12-17T18:28:06.518Z,10.60
2023-12-17T18:30:33.475Z,11.27
2023-12-17T18:33:00.543Z,12.27
2023-12-17T18:35:27.480Z,10.63
2023-12-17T18:37:54.366Z,11.10
2023-12-17T18:40:23.851Z,11.17
2023-12-17T18:42:50.793Z,10.40
2023-12-17T18:45:17.752Z,10.73
2023-12-17T18:47:44.824Z,10.70
2023-12-17T18:50:11.737Z,11.50
2023-12-17T18:52:38.755Z,11.80
2023-12-17T18:55:07.082Z,10.87
2023-12-17T18:57:36.691Z,10.90
2023-12-17T19:00:04.608Z,10.90
2023-12-17T19:02:31.603Z,11.10
2023-12-17T19:04:58.564Z,9.63
2023-12-17T19:07:25.507Z,9.90
2023-12-17T19:09:52.394Z,9.63
2023-12-17T19:12:19.629Z,9.43
2023-12-17T19:14:49.440Z,10.33
2023-12-17T19:17:16.910Z,16.97
2023-12-17T19:19:45.012Z,19.77
2023-12-17T19:22:11.990Z,13.47
2023-12-17T19:24:38.914Z,13.43
2023-12-17T19:27:05.938Z,13.03
2023-12-17T19:29:34.032Z,11.53
2023-12-17T19:32:03.911Z,11.67
2023-12-17T19:34:35.398Z,12.50
2023-12-17T19:37:02.398Z,25.27
2023-12-17T19:39:29.322Z,18.93
2023-12-17T19:41:56.308Z,15.17
2023-12-17T19:44:23.213Z,25.63
2023-12-17T19:46:50.195Z,20.90
2023-12-17T19:49:19.761Z,17.00
2023-12-17T19:51:46.795Z,13.57
2023-12-17T19:54:13.736Z,12.77
2023-12-17T19:56:40.675Z,12.27
2023-12-17T19:59:07.544Z,11.60
2023-12-17T20:01:34.459Z,12.40
2023-12-17T20:04:01.366Z,15.20
2023-12-17T20:06:30.948Z,13.53
2023-12-17T20:08:57.925Z,14.30
2023-12-17T20:11:24.866Z,12.80
2023-12-17T20:13:51.926Z,11.87
2023-12-17T20:16:18.827Z,13.23
2023-12-17T20:18:45.984Z,12.57
2023-12-17T20:21:13.640Z,14.43
2023-12-17T20:23:43.462Z,13.87
2023-12-17T20:26:10.465Z,11.97
2023-12-17T20:28:37.369Z,10.93
2023-12-17T20:31:04.652Z,10.80
2023-12-17T20:33:31.888Z,11.27
2023-12-17T20:35:58.979Z,11.70
2023-12-17T20:38:25.887Z,11.43
2023-12-17T20:40:55.364Z,11.73
2023-12-17T20:43:22.260Z,12.40
2023-12-17T20:45:49.233Z,12.87
2023-12-17T20:48:16.335Z,11.57
2023-12-17T20:50:44.061Z,11.70
2023-12-17T20:53:11.108Z,12.50
2023-12-17T20:55:38.020Z,15.43
2023-12-17T20:58:07.632Z,19.70
2023-12-17T21:00:34.667Z,19.70
2023-12-17T21:03:01.773Z,24.17
2023-12-17T21:05:28.766Z,23.80
2023-12-17T21:07:55.728Z,19.17
2023-12-17T21:10:22.620Z,14.77
2023-12-17T21:12:49.675Z,12.77
2023-12-17T21:15:19.516Z,15.13
2023-12-17T21:17:46.541Z,15.37
2023-12-17T21:20:13.736Z,16.07
2023-12-17T21:22:41.149Z,14.37
2023-12-17T21:25:09.716Z,12.90
2023-12-17T21:27:36.684Z,12.67
2023-12-17T21:30:05.223Z,11.73
2023-12-17T21:32:34.793Z,11.53
2023-12-17T21:35:01.766Z,11.00
2023-12-17T21:37:28.800Z,10.20
2023-12-17T21:39:55.688Z,10.43
2023-12-17T21:42:22.589Z,11.53
2023-12-17T21:44:49.705Z,11.57
2023-12-17T21:47:16.593Z,11.17
2023-12-17T21:49:46.305Z,11.70
2023-12-17T21:52:24.271Z,11.10
2023-12-17T21:54:59.594Z,10.60
2023-12-17T21:57:26.568Z,11.10
2023-12-17T22:00:13.459Z,10.97
2023-12-17T22:02:40.358Z,10.87
2023-12-17T22:05:09.967Z,12.90
2023-12-17T22:07:36.966Z,12.63
2023-12-17T22:10:04.114Z,12.00
2023-12-17T22:12:31.002Z,11.63
2023-12-17T22:14:57.933Z,12.23
2023-12-17T22:17:24.819Z,10.63
2023-12-17T22:19:51.848Z,10.30
2023-12-17T22:22:21.492Z,10.57
2023-12-17T22:24:48.396Z,10.83
2023-12-17T22:27:15.370Z,11.37
2023-12-17T22:29:42.326Z,12.40
2023-12-17T22:32:09.357Z,13.27
2023-12-17T22:34:36.284Z,12.17
2023-12-17T22:37:03.433Z,12.23
2023-12-17T22:39:34.289Z,11.30
2023-12-17T22:42:01.374Z,11.17
2023-12-17T22:44:28.312Z,10.53
2023-12-17T22:46:55.170Z,10.37
2023-12-17T22:49:22.145Z,10.03
2023-12-17T22:51:49.027Z,10.07
2023-12-17T22:54:16.303Z,10.93
2023-12-17T22:56:45.794Z,10.20
2023-12-17T22:59:12.700Z,11.27
2023-12-17T23:01:39.629Z,9.80
2023-12-17T23:04:06.556Z,11.00
2023-12-17T23:06:33.598Z,9.13
2023-12-17T23:09:00.757Z,9.93
2023-12-17T23:11:27.678Z,9.90
2023-12-17T23:13:57.183Z,9.83
2023-12-17T23:16:24.066Z,10.97
2023-12-17T23:18:51.086Z,10.57
2023-12-17T23:21:18.036Z,9.83
2023-12-17T23:23:44.954Z,12.63
2023-12-17T23:26:11.848Z,10.70
2023-12-17T23:28:39.146Z,10.00
2023-12-17T23:31:08.820Z,10.60
2023-12-17T23:33:35.886Z,9.17
2023-12-17T23:36:03.165Z,9.97
2023-12-17T23:38:30.082Z,9.60
2023-12-17T23:40:56.968Z,10.43
2023-12-17T23:43:23.859Z,10.43
2023-12-17T23:45:50.889Z,10.57
2023-12-17T23:48:20.714Z,10.43
2023-12-17T23:50:47.743Z,10.47
2023-12-17T23:53:14.624Z,9.70
2023-12-17T23:55:41.553Z,9.30
2023-12-17T23:58:08.492Z,9.67
